Ana Sayfa
METAR-TAF:

METAR-TAF

Havaalanları :

Middleton Island, Alaska, Amerika Birleşik Devletleri

Enlem: 59-26N, Boylam: 146-18W, yükseklik: 27 m

Güncel hava durumu gözlemi

Rapor saat 23:51 UTC de 51 dakika önce yapıldı.
Rüzgar doğudan 18 kt
Sıcaklık 7°C
Nem 81%
Basınç 1019 hPa
Görüş mesafesi: 12.9 km
Açık gökyüzü

METAR: PAMD 192351Z AUTO 10018KT 8SM CLR 07/04 A3010 RMK AO2 PK WND 10027/2307 SLP179 T00720039 10089 20072 56009

Saat: 16:42 (00:42 UTC)


TAF: eksik

4.000'den fazla havaalanı için hava durumu gözlemleri ve tahminleri (METAR ve TAF raporları).

Kullanılabilir istasyonlar harita üzerinde sarı ve kırmızı noktalarla gösterilir.

İstasyonun adını görmek için fareyi noktanın üzerinde gezdirin.

Sonrasında hava gözlem ve tahminlerini görmek için tıklayın.

Haritayı değiştirmek için: yaklaştırmak için siyah artı işaretli yeşil düğmeye ve uzaklaştırmak için de eksi işaretli düğmeye hızla tıklayın; bitişik haritalar için yeşil okları kullanın.


METAR-TAF: